OI96 weather

National Heliport
Columbus, Ohio, United States

Public forecast

Using degrees Fahrenheit for public forecast. Weather courtesy of forecast.io.

Closest aviation weather report (METAR) to National Heliport

Closest report is John Glenn Columbus International Airport, 4.7 nm (8.7 km) NW. Retrieved 2020/06/01 01:51 UTC (22 minutes ago):

KCMH 010151Z 01006KT 10SM SCT250 13/04 A3028 RMK AO2 SLP254 T01330039

Closest aviation forecast (TAF) to National Heliport

Closest forecast is John Glenn Columbus International Airport, 4.7 nm (8.7 km) NW. Retrieved 2020-06-01 00:36 UTC (2 hours ago):

TAF KCMH 312334Z 0100/0124 36008KT P6SM SCT250 FM010300 00000KT P6SM FEW250 FM011400 17006KT P6SM FEW250 FM012100 21007KT P6SM BKN150